createdAt,value
2023-05-09T00:02:40.446Z,9.18
2023-05-09T00:07:41.240Z,9.14
2023-05-09T00:12:43.720Z,9.14
2023-05-09T00:17:46.589Z,9.08
2023-05-09T00:22:47.297Z,9.09
2023-05-09T00:27:47.966Z,9.05
2023-05-09T00:32:50.064Z,8.93
2023-05-09T00:37:50.718Z,8.92
2023-05-09T00:42:51.602Z,8.95
2023-05-09T00:47:53.802Z,8.92
2023-05-09T00:52:54.772Z,8.92
2023-05-09T00:57:55.523Z,8.85
2023-05-09T01:02:58.532Z,8.82
2023-05-09T01:08:08.498Z,8.75
2023-05-09T01:13:18.481Z,8.73
2023-05-09T01:18:25.899Z,8.69
2023-05-09T01:23:49.290Z,8.67
2023-05-09T01:29:10.019Z,8.61
2023-05-09T01:34:12.298Z,8.49
2023-05-09T01:39:14.608Z,8.53
2023-05-09T01:44:17.853Z,8.45
2023-05-09T01:49:21.276Z,8.40
2023-05-09T01:54:25.513Z,8.41
2023-05-09T01:59:29.746Z,8.30
2023-05-09T02:04:32.111Z,8.30
2023-05-09T02:09:32.866Z,8.28
2023-05-09T02:14:34.932Z,8.27
2023-05-09T02:19:36.029Z,8.16
2023-05-09T02:24:37.051Z,8.12
2023-05-09T02:29:44.318Z,8.17
2023-05-09T02:34:46.377Z,8.05
2023-05-09T02:39:47.331Z,7.97
2023-05-09T02:44:49.334Z,7.98
2023-05-09T02:49:50.028Z,7.91
2023-05-09T02:54:50.714Z,7.92
2023-05-09T02:59:53.065Z,7.84
2023-05-09T03:04:53.747Z,7.81
2023-05-09T03:09:55.102Z,7.80
2023-05-09T03:14:57.599Z,7.80
2023-05-09T03:19:59.584Z,7.72
2023-05-09T03:25:01.259Z,7.60
2023-05-09T03:30:03.352Z,7.64
2023-05-09T03:35:04.577Z,7.64
2023-05-09T03:40:07.985Z,7.60
2023-05-09T03:45:16.735Z,7.57
2023-05-09T03:50:19.477Z,7.56
2023-05-09T03:55:20.778Z,7.58
2023-05-09T04:00:23.264Z,7.69
2023-05-09T04:05:35.481Z,7.76
2023-05-09T04:10:37.840Z,7.77
2023-05-09T04:15:40.139Z,7.79
2023-05-09T04:20:40.885Z,7.83
2023-05-09T04:25:42.541Z,7.85
2023-05-09T04:30:44.748Z,7.99
2023-05-09T04:35:46.083Z,8.05
2023-05-09T04:40:47.656Z,8.04
2023-05-09T04:45:50.129Z,8.22
2023-05-09T04:50:50.896Z,8.30
2023-05-09T04:55:51.997Z,8.45
2023-05-09T05:00:54.725Z,8.55
2023-05-09T05:05:56.092Z,8.61
2023-05-09T05:10:57.229Z,8.69
2023-05-09T05:15:59.591Z,8.75
2023-05-09T05:21:00.391Z,8.90
2023-05-09T05:26:01.283Z,8.98
2023-05-09T05:31:04.629Z,9.05
2023-05-09T05:36:06.858Z,9.13
2023-05-09T05:41:11.227Z,9.25
2023-05-09T05:46:14.595Z,9.39
2023-05-09T05:51:16.219Z,9.54
2023-05-09T05:56:17.984Z,9.63
2023-05-09T06:01:20.307Z,9.75
2023-05-09T06:06:21.878Z,9.82
2023-05-09T06:11:22.725Z,10.00
2023-05-09T06:16:24.838Z,10.22
2023-05-09T06:21:26.322Z,10.35
2023-05-09T06:26:27.255Z,10.48
2023-05-09T06:31:29.715Z,10.59
2023-05-09T06:36:30.584Z,10.74
2023-05-09T06:41:31.221Z,10.90
2023-05-09T06:46:33.314Z,11.03
2023-05-09T06:51:34.054Z,11.11
2023-05-09T06:56:34.769Z,11.29
2023-05-09T07:01:36.844Z,11.38
2023-05-09T07:06:37.573Z,11.50
2023-05-09T07:11:38.574Z,11.79
2023-05-09T07:16:40.609Z,11.87
2023-05-09T07:21:41.304Z,11.99
2023-05-09T07:26:41.953Z,11.99
2023-05-09T07:31:44.013Z,12.02
2023-05-09T07:36:44.661Z,12.08
2023-05-09T07:41:45.980Z,12.23
2023-05-09T07:46:49.756Z,12.53
2023-05-09T07:51:50.589Z,12.76
2023-05-09T07:56:51.273Z,12.82
2023-05-09T08:01:53.325Z,13.01
2023-05-09T08:06:54.005Z,13.08
2023-05-09T08:11:54.667Z,13.18
2023-05-09T08:16:56.726Z,13.30
2023-05-09T08:21:57.401Z,13.39
2023-05-09T08:26:58.069Z,13.48
2023-05-09T08:32:00.170Z,13.60
2023-05-09T08:37:00.864Z,13.63
2023-05-09T08:42:02.777Z,13.95
2023-05-09T08:47:05.851Z,14.07
2023-05-09T08:52:06.965Z,14.22
2023-05-09T08:57:07.737Z,14.33
2023-05-09T09:02:13.722Z,14.47
2023-05-09T09:07:16.188Z,14.44
2023-05-09T09:12:17.612Z,14.60
2023-05-09T09:17:22.400Z,14.83
2023-05-09T09:22:23.792Z,14.85
2023-05-09T09:27:24.443Z,15.03
2023-05-09T09:32:34.101Z,15.39
2023-05-09T09:37:36.348Z,15.50
2023-05-09T09:42:44.090Z,15.42
2023-05-09T09:47:47.310Z,15.43
2023-05-09T09:52:52.032Z,15.70
2023-05-09T09:57:53.109Z,16.01
2023-05-09T10:02:56.868Z,16.19
2023-05-09T10:07:59.074Z,16.44
2023-05-09T10:13:01.558Z,16.56
2023-05-09T10:18:04.650Z,16.70
2023-05-09T10:23:07.033Z,16.82
2023-05-09T10:28:13.568Z,16.93
2023-05-09T10:33:17.428Z,17.02
2023-05-09T10:38:19.663Z,17.16
2023-05-09T10:43:24.001Z,17.14
2023-05-09T10:48:26.663Z,17.34
2023-05-09T10:53:42.398Z,17.39
2023-05-09T10:58:43.072Z,17.43
2023-05-09T11:04:11.454Z,17.50
2023-05-09T11:09:38.051Z,17.64
2023-05-09T11:14:44.539Z,17.61
2023-05-09T11:20:06.547Z,17.68
2023-05-09T11:25:09.631Z,17.93
2023-05-09T11:30:14.173Z,17.93
2023-05-09T11:35:18.029Z,17.96
2023-05-09T11:40:20.085Z,18.02
2023-05-09T11:45:21.601Z,18.28
2023-05-09T11:50:23.759Z,18.31
2023-05-09T11:55:25.675Z,18.46
2023-05-09T12:00:27.095Z,18.59
2023-05-09T12:05:29.333Z,18.57
2023-05-09T12:10:30.036Z,18.67
2023-05-09T12:15:30.975Z,18.99
2023-05-09T12:20:43.350Z,19.04
2023-05-09T12:25:49.821Z,19.26
2023-05-09T12:30:51.584Z,19.25
2023-05-09T12:36:05.758Z,19.57
2023-05-09T12:41:15.363Z,19.33
2023-05-09T12:46:28.780Z,19.56
2023-05-09T12:51:31.046Z,19.59
2023-05-09T12:56:35.305Z,19.57
2023-05-09T13:01:37.010Z,19.71
2023-05-09T13:06:49.039Z,19.62
2023-05-09T13:11:50.872Z,19.82
2023-05-09T13:16:51.595Z,19.92
2023-05-09T13:21:55.634Z,20.11
2023-05-09T13:26:56.302Z,20.20
2023-05-09T13:31:57.021Z,20.19
2023-05-09T13:36:59.106Z,20.34
2023-05-09T13:41:59.877Z,20.26
2023-05-09T13:47:00.708Z,20.57
2023-05-09T13:52:02.815Z,20.48
2023-05-09T13:57:03.909Z,20.53
2023-05-09T14:02:04.796Z,20.69
2023-05-09T14:07:06.981Z,20.68
2023-05-09T14:12:08.018Z,20.60
2023-05-09T14:17:08.737Z,20.75
2023-05-09T14:22:10.785Z,20.48
2023-05-09T14:27:11.485Z,20.69
2023-05-09T14:32:12.880Z,20.79
2023-05-09T14:37:14.914Z,20.88
2023-05-09T14:42:16.688Z,21.07
2023-05-09T14:47:17.724Z,21.08
2023-05-09T14:52:19.786Z,21.07
2023-05-09T14:57:20.694Z,21.02
2023-05-09T15:02:21.409Z,20.91
2023-05-09T15:07:23.878Z,20.81
2023-05-09T15:12:24.578Z,20.87
2023-05-09T15:17:25.291Z,21.07
2023-05-09T15:22:27.518Z,20.76
2023-05-09T15:27:28.222Z,20.90
2023-05-09T15:32:29.353Z,20.97
2023-05-09T15:37:32.379Z,21.38
2023-05-09T15:42:33.977Z,21.26
2023-05-09T15:47:34.754Z,21.37
2023-05-09T15:52:37.262Z,21.63
2023-05-09T15:57:37.925Z,21.69
2023-05-09T16:02:38.695Z,21.62
2023-05-09T16:07:44.099Z,21.60
2023-05-09T16:12:44.811Z,22.18
2023-05-09T16:17:45.748Z,22.33
2023-05-09T16:22:47.781Z,21.95
2023-05-09T16:27:48.461Z,22.62
2023-05-09T16:32:49.242Z,24.30
2023-05-09T16:37:51.394Z,25.44
2023-05-09T16:42:53.657Z,25.53
2023-05-09T16:47:55.723Z,26.73
2023-05-09T16:52:57.910Z,26.99
2023-05-09T16:58:00.055Z,26.90
2023-05-09T17:03:01.630Z,27.47
2023-05-09T17:08:04.237Z,26.11
2023-05-09T17:13:08.690Z,25.30
2023-05-09T17:18:09.702Z,25.26
2023-05-09T17:23:11.753Z,25.36
2023-05-09T17:28:12.463Z,24.81
2023-05-09T17:33:13.248Z,23.94
2023-05-09T17:38:15.346Z,23.96
2023-05-09T17:43:16.096Z,23.10
2023-05-09T17:48:16.958Z,21.41
2023-05-09T17:53:18.997Z,19.99
2023-05-09T17:58:20.841Z,19.03
2023-05-09T18:03:21.701Z,18.43
2023-05-09T18:08:23.861Z,17.95
2023-05-09T18:13:24.809Z,17.52
2023-05-09T18:18:26.261Z,17.30
2023-05-09T18:23:28.582Z,16.94
2023-05-09T18:28:29.287Z,16.75
2023-05-09T18:33:30.082Z,16.48
2023-05-09T18:38:34.660Z,16.34
2023-05-09T18:43:35.452Z,16.18
2023-05-09T18:48:36.184Z,16.05
2023-05-09T18:53:38.808Z,16.09
2023-05-09T18:58:39.896Z,16.00
2023-05-09T19:03:45.369Z,15.99
2023-05-09T19:08:48.008Z,15.92
2023-05-09T19:13:49.486Z,15.80
2023-05-09T19:18:50.299Z,15.77
2023-05-09T19:23:52.611Z,15.67
2023-05-09T19:28:53.745Z,15.62
2023-05-09T19:33:54.432Z,15.59
2023-05-09T19:38:56.507Z,15.41
2023-05-09T19:43:57.403Z,15.21
2023-05-09T19:48:58.162Z,14.96
2023-05-09T19:54:00.469Z,14.91
2023-05-09T19:59:01.340Z,14.76
2023-05-09T20:04:02.094Z,14.72
2023-05-09T20:09:04.747Z,14.46
2023-05-09T20:14:05.622Z,14.55
2023-05-09T20:19:07.638Z,14.37
2023-05-09T20:24:11.746Z,14.34
2023-05-09T20:29:12.808Z,14.34
2023-05-09T20:34:16.183Z,14.32
2023-05-09T20:39:18.710Z,14.24
2023-05-09T20:44:20.037Z,14.18
2023-05-09T20:49:20.758Z,14.09
2023-05-09T20:54:24.016Z,13.94
2023-05-09T20:59:24.724Z,14.04
2023-05-09T21:04:25.752Z,14.07
2023-05-09T21:09:27.857Z,13.92
2023-05-09T21:14:28.521Z,13.79
2023-05-09T21:19:29.249Z,13.73
2023-05-09T21:24:31.309Z,13.68
2023-05-09T21:29:33.565Z,13.77
2023-05-09T21:34:34.270Z,13.73
2023-05-09T21:39:36.302Z,13.67
2023-05-09T21:44:37.133Z,13.70
2023-05-09T21:49:37.792Z,13.64
2023-05-09T21:54:39.834Z,13.50
2023-05-09T21:59:40.544Z,13.58
2023-05-09T22:04:41.208Z,13.44
2023-05-09T22:09:43.245Z,13.38
2023-05-09T22:14:53.026Z,13.40
2023-05-09T22:19:56.740Z,13.32
2023-05-09T22:24:58.724Z,13.33
2023-05-09T22:30:01.435Z,13.21
2023-05-09T22:35:02.304Z,13.17
2023-05-09T22:40:05.140Z,13.21
2023-05-09T22:45:07.349Z,13.12
2023-05-09T22:50:09.465Z,13.07
2023-05-09T22:55:11.737Z,12.99
2023-05-09T23:00:13.733Z,13.08
2023-05-09T23:05:14.697Z,12.98
2023-05-09T23:10:16.950Z,12.93
2023-05-09T23:15:17.851Z,12.85
2023-05-09T23:20:18.683Z,12.84
2023-05-09T23:25:21.022Z,12.80
2023-05-09T23:30:21.775Z,12.77
2023-05-09T23:35:22.612Z,12.64
2023-05-09T23:40:24.707Z,12.66
2023-05-09T23:45:25.580Z,12.63
2023-05-09T23:50:26.228Z,12.55
2023-05-09T23:55:28.340Z,12.62
